Time,TemperatureF,DewpointF,PressureIn,WindDirection,WindDirectionDegrees,WindSpeedMPH,WindSpeedGustMPH,Humidity,HourlyPrecipIn,Conditions,Clouds,dailyrainin,SoftwareType,DateUTC
2013-05-21 00:00:00,61.2,59.2,29.97,WNW,289,0.0,22.0,93,0.00,,,0.00,Wunderground v.1.15,2013-05-21 04:00:00,
2013-05-21 00:05:00,61.2,59.2,29.97,WNW,289,0.0,22.0,93,0.00,,,0.00,Wunderground v.1.15,2013-05-21 04:05:00,
2013-05-21 00:10:00,61.2,59.2,29.97,WNW,289,0.0,22.0,93,0.00,,,0.00,Wunderground v.1.15,2013-05-21 04:10:00,
2013-05-21 00:15:00,61.2,59.2,29.97,WNW,289,0.0,22.0,93,0.00,,,0.00,Wunderground v.1.15,2013-05-21 04:15:00,
2013-05-21 00:20:00,61.0,59.0,29.97,WNW,289,0.0,22.0,93,0.00,,,0.00,Wunderground v.1.15,2013-05-21 04:20:00,
2013-05-21 00:25:00,61.0,59.0,29.97,WNW,289,0.0,22.0,93,0.00,,,0.00,Wunderground v.1.15,2013-05-21 04:25:00,
2013-05-21 00:30:00,61.0,59.0,29.95,WNW,289,0.0,22.0,93,0.00,,,0.00,Wunderground v.1.15,2013-05-21 04:30:00,
2013-05-21 00:35:00,60.9,58.9,29.95,WNW,289,0.0,22.0,93,0.00,,,0.00,Wunderground v.1.15,2013-05-21 04:35:00,
2013-05-21 00:40:00,60.7,58.7,29.95,WNW,289,0.0,22.0,93,0.00,,,0.00,Wunderground v.1.15,2013-05-21 04:40:00,
2013-05-21 00:45:00,60.5,58.5,29.95,WNW,289,0.0,22.0,93,0.00,,,0.00,Wunderground v.1.15,2013-05-21 04:45:00,
2013-05-21 00:50:00,60.4,58.4,29.95,WNW,289,0.0,22.0,93,0.00,,,0.00,Wunderground v.1.15,2013-05-21 04:50:00,
2013-05-21 00:55:00,60.1,58.1,29.95,WNW,289,0.0,22.0,93,0.00,,,0.00,Wunderground v.1.15,2013-05-21 04:55:00,
2013-05-21 01:00:00,59.9,57.9,29.95,WNW,289,0.0,22.0,93,0.00,,,0.00,Wunderground v.1.15,2013-05-21 05:00:00,
2013-05-21 01:05:00,59.8,57.8,29.95,WNW,289,0.0,22.0,93,0.00,,,0.00,Wunderground v.1.15,2013-05-21 05:05:00,
2013-05-21 01:10:00,59.6,57.6,29.95,WNW,289,0.0,22.0,93,0.00,,,0.00,Wunderground v.1.15,2013-05-21 05:10:00,
2013-05-21 01:15:00,59.3,57.3,29.94,WNW,289,0.0,22.0,93,0.00,,,0.00,Wunderground v.1.15,2013-05-21 05:15:00,
2013-05-21 01:20:00,59.0,57.0,29.94,WNW,289,0.0,22.0,93,0.00,,,0.00,Wunderground v.1.15,2013-05-21 05:20:00,
2013-05-21 01:25:00,59.2,57.5,29.94,WNW,289,0.0,22.0,94,0.00,,,0.00,Wunderground v.1.15,2013-05-21 05:25:00,
2013-05-21 01:30:00,59.2,57.5,29.94,WNW,289,0.0,22.0,94,0.00,,,0.00,Wunderground v.1.15,2013-05-21 05:30:00,
2013-05-21 01:35:00,59.3,57.6,29.94,WNW,289,0.0,22.0,94,0.00,,,0.00,Wunderground v.1.15,2013-05-21 05:35:00,
2013-05-21 01:40:00,59.2,57.5,29.94,WNW,289,0.0,22.0,94,0.00,,,0.00,Wunderground v.1.15,2013-05-21 05:40:00,
2013-05-21 01:45:00,58.9,57.2,29.93,WNW,289,0.0,22.0,94,0.00,,,0.00,Wunderground v.1.15,2013-05-21 05:45:00,
2013-05-21 01:55:00,58.7,57.0,29.93,WNW,289,0.0,22.0,94,0.00,,,0.00,Wunderground v.1.15,2013-05-21 05:55:00,
2013-05-21 02:00:00,58.7,57.0,29.93,WNW,289,0.0,22.0,94,0.00,,,0.00,Wunderground v.1.15,2013-05-21 06:00:00,
2013-05-21 02:05:00,58.7,57.0,29.93,WNW,289,0.0,22.0,94,0.00,,,0.00,Wunderground v.1.15,2013-05-21 06:05:00,
2013-05-21 02:10:00,58.6,56.9,29.93,WNW,289,0.0,22.0,94,0.00,,,0.00,Wunderground v.1.15,2013-05-21 06:10:00,
2013-05-21 02:15:00,58.6,56.9,29.92,WNW,289,0.0,22.0,94,0.00,,,0.00,Wunderground v.1.15,2013-05-21 06:15:00,
2013-05-21 02:20:00,58.4,56.7,29.92,WNW,289,0.0,22.0,94,0.00,,,0.00,Wunderground v.1.15,2013-05-21 06:20:00,
2013-05-21 02:30:00,58.3,56.6,29.92,WNW,289,0.0,22.0,94,0.00,,,0.00,Wunderground v.1.15,2013-05-21 06:30:00,
2013-05-21 02:35:00,58.3,56.6,29.92,WNW,289,0.0,22.0,94,0.00,,,0.00,Wunderground v.1.15,2013-05-21 06:35:00,
2013-05-21 02:40:00,58.1,56.4,29.92,WNW,289,0.0,22.0,94,0.00,,,0.00,Wunderground v.1.15,2013-05-21 06:40:00,
2013-05-21 02:45:00,58.1,56.4,29.92,WNW,289,0.0,22.0,94,0.00,,,0.00,Wunderground v.1.15,2013-05-21 06:45:00,
2013-05-21 02:50:00,58.0,56.3,29.92,WNW,289,0.0,22.0,94,0.00,,,0.00,Wunderground v.1.15,2013-05-21 06:50:00,
2013-05-21 02:55:00,57.8,56.1,29.92,WNW,289,0.0,22.0,94,0.00,,,0.00,Wunderground v.1.15,2013-05-21 06:55:00,
2013-05-21 03:00:00,57.8,56.4,29.92,WNW,289,0.0,22.0,95,0.00,,,0.00,Wunderground v.1.15,2013-05-21 07:00:00,
2013-05-21 03:05:00,58.0,56.6,29.92,WNW,289,0.0,22.0,95,0.00,,,0.00,Wunderground v.1.15,2013-05-21 07:05:00,
2013-05-21 03:10:00,58.0,56.6,29.92,WNW,289,0.0,22.0,95,0.00,,,0.00,Wunderground v.1.15,2013-05-21 07:10:00,
2013-05-21 03:15:00,58.0,56.6,29.91,WNW,289,0.0,22.0,95,0.00,,,0.00,Wunderground v.1.15,2013-05-21 07:15:00,
2013-05-21 03:20:00,58.0,56.6,29.91,WNW,289,0.0,22.0,95,0.00,,,0.00,Wunderground v.1.15,2013-05-21 07:20:00,
2013-05-21 03:25:00,58.1,56.7,29.91,WNW,289,0.0,22.0,95,0.00,,,0.00,Wunderground v.1.15,2013-05-21 07:25:00,
2013-05-21 03:35:00,58.3,56.9,29.90,WNW,289,0.0,22.0,95,0.00,,,0.00,Wunderground v.1.15,2013-05-21 07:35:00,
2013-05-21 03:40:00,58.3,56.9,29.90,WNW,289,0.0,22.0,95,0.00,,,0.00,Wunderground v.1.15,2013-05-21 07:40:00,
2013-05-21 03:45:00,58.1,56.7,29.92,WNW,289,0.0,22.0,95,0.00,,,0.00,Wunderground v.1.15,2013-05-21 07:45:00,
2013-05-21 03:50:00,58.3,56.9,29.92,WNW,289,0.0,22.0,95,0.00,,,0.00,Wunderground v.1.15,2013-05-21 07:50:00,
2013-05-21 03:55:00,58.1,56.7,29.92,WNW,289,0.0,22.0,95,0.00,,,0.00,Wunderground v.1.15,2013-05-21 07:55:00,
2013-05-21 04:00:00,58.3,56.9,29.92,WNW,289,0.0,22.0,95,0.00,,,0.00,Wunderground v.1.15,2013-05-21 08:00:00,
2013-05-21 04:05:00,58.3,56.9,29.92,WNW,289,0.0,22.0,95,0.00,,,0.00,Wunderground v.1.15,2013-05-21 08:05:00,
2013-05-21 04:10:00,58.0,56.6,29.92,WNW,289,0.0,22.0,95,0.00,,,0.00,Wunderground v.1.15,2013-05-21 08:10:00,
2013-05-21 04:15:00,57.8,56.4,29.92,WNW,289,0.0,22.0,95,0.00,,,0.00,Wunderground v.1.15,2013-05-21 08:15:00,
2013-05-21 04:20:00,57.8,56.4,29.92,WNW,289,0.0,22.0,95,0.00,,,0.00,Wunderground v.1.15,2013-05-21 08:20:00,
2013-05-21 04:25:00,57.8,56.4,29.92,WNW,289,0.0,22.0,95,0.00,,,0.00,Wunderground v.1.15,2013-05-21 08:25:00,
2013-05-21 04:30:00,57.8,56.4,29.91,WNW,289,0.0,22.0,95,0.00,,,0.00,Wunderground v.1.15,2013-05-21 08:30:00,
2013-05-21 04:35:00,57.8,56.4,29.91,WNW,289,0.0,22.0,95,0.00,,,0.00,Wunderground v.1.15,2013-05-21 08:35:00,
2013-05-21 04:40:00,57.6,56.2,29.91,WNW,289,0.0,22.0,95,0.00,,,0.00,Wunderground v.1.15,2013-05-21 08:40:00,
2013-05-21 04:45:00,57.6,56.2,29.92,WNW,289,0.0,22.0,95,0.00,,,0.00,Wunderground v.1.15,2013-05-21 08:45:00,
2013-05-21 04:50:00,57.6,56.2,29.92,WNW,289,0.0,22.0,95,0.00,,,0.00,Wunderground v.1.15,2013-05-21 08:50:00,
2013-05-21 04:55:00,57.6,56.2,29.92,WNW,289,0.0,22.0,95,0.00,,,0.00,Wunderground v.1.15,2013-05-21 08:55:00,
2013-05-21 05:00:00,57.8,56.4,29.92,WNW,289,0.0,22.0,95,0.00,,,0.00,Wunderground v.1.15,2013-05-21 09:00:00,
2013-05-21 05:05:00,57.8,56.4,29.92,WNW,289,0.0,22.0,95,0.00,,,0.00,Wunderground v.1.15,2013-05-21 09:05:00,
2013-05-21 05:15:00,57.8,56.4,29.91,WNW,289,0.0,22.0,95,0.00,,,0.00,Wunderground v.1.15,2013-05-21 09:15:00,
2013-05-21 05:20:00,57.8,56.7,29.91,WNW,289,0.0,22.0,96,0.00,,,0.00,Wunderground v.1.15,2013-05-21 09:20:00,
2013-05-21 05:25:00,57.8,56.7,29.91,WNW,289,0.0,22.0,96,0.00,,,0.00,Wunderground v.1.15,2013-05-21 09:25:00,
2013-05-21 05:30:00,57.8,56.7,29.90,WNW,289,0.0,22.0,96,0.00,,,0.00,Wunderground v.1.15,2013-05-21 09:30:00,
2013-05-21 05:35:00,57.8,56.4,29.90,WNW,289,0.0,22.0,95,0.00,,,0.00,Wunderground v.1.15,2013-05-21 09:35:00,
2013-05-21 05:40:00,57.6,56.2,29.90,WNW,289,0.0,22.0,95,0.00,,,0.00,Wunderground v.1.15,2013-05-21 09:40:00,
2013-05-21 05:45:00,57.6,56.5,29.87,WNW,289,0.0,22.0,96,0.00,,,0.00,Wunderground v.1.15,2013-05-21 09:45:00,
2013-05-21 05:50:00,57.6,56.5,29.87,WNW,289,0.0,22.0,96,0.00,,,0.00,Wunderground v.1.15,2013-05-21 09:50:00,
2013-05-21 05:55:00,57.6,56.5,29.87,WNW,289,0.0,22.0,96,0.00,,,0.00,Wunderground v.1.15,2013-05-21 09:55:00,
2013-05-21 06:00:00,57.6,56.5,29.87,WNW,289,0.0,22.0,96,0.00,,,0.00,Wunderground v.1.15,2013-05-21 10:00:00,
2013-05-21 06:05:00,57.8,56.7,29.87,SE,144,0.0,22.0,96,0.00,,,0.00,Wunderground v.1.15,2013-05-21 10:05:00,
2013-05-21 06:10:00,58.1,57.0,29.87,ESE,113,1.0,1.0,96,0.00,,,0.00,Wunderground v.1.15,2013-05-21 10:10:00,
2013-05-21 06:15:00,58.1,57.0,29.90,ESE,117,1.0,22.0,96,0.00,,,0.00,Wunderground v.1.15,2013-05-21 10:15:00,
2013-05-21 06:25:00,58.1,57.0,29.90,WNW,295,1.0,22.0,96,0.00,,,0.00,Wunderground v.1.15,2013-05-21 10:25:00,
2013-05-21 06:30:00,58.3,57.2,29.89,WNW,295,0.0,22.0,96,0.00,,,0.00,Wunderground v.1.15,2013-05-21 10:30:00,
2013-05-21 06:35:00,58.4,57.3,29.89,WNW,295,0.0,22.0,96,0.00,,,0.00,Wunderground v.1.15,2013-05-21 10:35:00,
2013-05-21 06:40:00,58.6,57.5,29.89,WNW,295,0.0,22.0,96,0.00,,,0.00,Wunderground v.1.15,2013-05-21 10:40:00,
2013-05-21 06:45:00,58.7,57.6,29.89,WNW,295,0.0,22.0,96,0.00,,,0.00,Wunderground v.1.15,2013-05-21 10:45:00,
2013-05-21 06:50:00,59.2,58.1,29.89,WNW,295,0.0,22.0,96,0.00,,,0.00,Wunderground v.1.15,2013-05-21 10:50:00,
2013-05-21 06:55:00,59.6,58.5,29.89,WNW,292,0.0,22.0,96,0.00,,,0.00,Wunderground v.1.15,2013-05-21 10:55:00,
2013-05-21 07:00:00,60.1,59.0,29.89,NW,308,0.0,22.0,96,0.00,,,0.00,Wunderground v.1.15,2013-05-21 11:00:00,
2013-05-21 07:05:00,60.5,59.4,29.89,NW,308,0.0,22.0,96,0.00,,,0.00,Wunderground v.1.15,2013-05-21 11:05:00,
2013-05-21 07:10:00,61.0,59.9,29.89,NW,308,0.0,22.0,96,0.00,,,0.00,Wunderground v.1.15,2013-05-21 11:10:00,
2013-05-21 07:15:00,61.3,60.2,29.90,ESE,104,0.0,22.0,96,0.00,,,0.00,Wunderground v.1.15,2013-05-21 11:15:00,
2013-05-21 07:20:00,62.0,60.8,29.90,ESE,104,0.0,22.0,96,0.00,,,0.00,Wunderground v.1.15,2013-05-21 11:20:00,
2013-05-21 07:25:00,62.4,61.2,29.90,ESE,104,0.0,22.0,96,0.00,,,0.00,Wunderground v.1.15,2013-05-21 11:25:00,
2013-05-21 07:30:00,62.9,61.7,29.89,ESE,104,0.0,22.0,96,0.00,,,0.00,Wunderground v.1.15,2013-05-21 11:30:00,
2013-05-21 07:35:00,63.1,61.9,29.89,NW,316,0.0,22.0,96,0.00,,,0.00,Wunderground v.1.15,2013-05-21 11:35:00,
2013-05-21 07:40:00,63.4,62.2,29.89,NW,316,0.0,22.0,96,0.00,,,0.00,Wunderground v.1.15,2013-05-21 11:40:00,
2013-05-21 07:45:00,63.9,62.7,29.89,NW,316,0.0,22.0,96,0.00,,,0.00,Wunderground v.1.15,2013-05-21 11:45:00,
2013-05-21 07:50:00,63.9,62.7,29.89,NW,316,0.0,22.0,96,0.00,,,0.00,Wunderground v.1.15,2013-05-21 11:50:00,
2013-05-21 07:55:00,63.9,62.7,29.89,NW,316,0.0,22.0,96,0.00,,,0.00,Wunderground v.1.15,2013-05-21 11:55:00,
2013-05-21 08:00:00,64.2,63.0,29.89,NW,316,0.0,22.0,96,0.00,,,0.00,Wunderground v.1.15,2013-05-21 12:00:00,
2013-05-21 08:05:00,64.2,63.0,29.89,NW,316,0.0,22.0,96,0.00,,,0.00,Wunderground v.1.15,2013-05-21 12:05:00,
2013-05-21 08:10:00,64.5,63.3,29.89,SE,138,0.0,22.0,96,0.00,,,0.00,Wunderground v.1.15,2013-05-21 12:10:00,
2013-05-21 08:15:00,64.7,63.5,29.89,ENE,68,0.0,22.0,96,0.00,,,0.00,Wunderground v.1.15,2013-05-21 12:15:00,
2013-05-21 08:20:00,65.0,63.8,29.89,ENE,68,0.0,22.0,96,0.00,,,0.00,Wunderground v.1.15,2013-05-21 12:20:00,
2013-05-21 08:25:00,65.3,64.1,29.89,ENE,68,0.0,22.0,96,0.00,,,0.00,Wunderground v.1.15,2013-05-21 12:25:00,
2013-05-21 08:30:00,65.5,64.3,29.90,ENE,68,0.0,22.0,96,0.00,,,0.00,Wunderground v.1.15,2013-05-21 12:30:00,
2013-05-21 08:35:00,65.8,64.3,29.90,North,3,0.0,22.0,95,0.00,,,0.00,Wunderground v.1.15,2013-05-21 12:35:00,
2013-05-21 08:40:00,66.1,64.6,29.90,North,3,0.0,22.0,95,0.00,,,0.00,Wunderground v.1.15,2013-05-21 12:40:00,
2013-05-21 08:45:00,66.4,64.9,29.90,North,3,0.0,22.0,95,0.00,,,0.00,Wunderground v.1.15,2013-05-21 12:45:00,
2013-05-21 08:50:00,66.8,65.0,29.90,North,3,0.0,22.0,94,0.00,,,0.00,Wunderground v.1.15,2013-05-21 12:50:00,
2013-05-21 08:55:00,67.1,65.3,29.90,North,3,0.0,22.0,94,0.00,,,0.00,Wunderground v.1.15,2013-05-21 12:55:00,
2013-05-21 09:00:00,67.1,64.7,29.90,North,3,0.0,22.0,92,0.00,,,0.00,Wunderground v.1.15,2013-05-21 13:00:00,
2013-05-21 09:05:00,67.4,65.0,29.90,ENE,73,0.0,22.0,92,0.00,,,0.00,Wunderground v.1.15,2013-05-21 13:05:00,
2013-05-21 09:10:00,67.8,64.8,29.90,East,85,1.0,22.0,90,0.00,,,0.00,Wunderground v.1.15,2013-05-21 13:10:00,
2013-05-21 09:15:00,68.1,64.7,29.89,ESE,117,1.0,22.0,89,0.00,,,0.00,Wunderground v.1.15,2013-05-21 13:15:00,
2013-05-21 09:20:00,68.4,64.4,29.89,ESE,117,0.0,22.0,87,0.00,,,0.00,Wunderground v.1.15,2013-05-21 13:20:00,
2013-05-21 09:25:00,68.8,64.4,29.89,ESE,117,0.0,22.0,86,0.00,,,0.00,Wunderground v.1.15,2013-05-21 13:25:00,
2013-05-21 09:30:00,68.8,64.1,29.90,East,89,0.0,22.0,85,0.00,,,0.00,Wunderground v.1.15,2013-05-21 13:30:00,
2013-05-21 09:35:00,69.4,64.4,29.90,East,89,0.0,22.0,84,0.00,,,0.00,Wunderground v.1.15,2013-05-21 13:35:00,
2013-05-21 09:40:00,69.8,64.4,29.90,East,89,0.0,22.0,83,0.00,,,0.00,Wunderground v.1.15,2013-05-21 13:40:00,
2013-05-21 09:50:00,70.4,64.3,29.88,East,90,1.0,1.0,81,0.00,,,0.00,Wunderground v.1.15,2013-05-21 13:50:00,
2013-05-21 09:55:00,70.8,64.3,29.88,East,90,0.0,22.0,80,0.00,,,0.00,Wunderground v.1.15,2013-05-21 13:55:00,
2013-05-21 10:00:00,71.3,64.4,29.88,East,90,0.0,22.0,79,0.00,,,0.00,Wunderground v.1.15,2013-05-21 14:00:00,
2013-05-21 10:05:00,71.8,64.9,29.88,East,90,0.0,22.0,79,0.00,,,0.00,Wunderground v.1.15,2013-05-21 14:05:00,
2013-05-21 10:10:00,72.3,65.4,29.88,East,96,0.0,22.0,79,0.00,,,0.00,Wunderground v.1.15,2013-05-21 14:10:00,
2013-05-21 10:15:00,73.0,65.0,29.88,West,281,0.0,22.0,76,0.00,,,0.00,Wunderground v.1.15,2013-05-21 14:15:00,
2013-05-21 10:20:00,73.9,64.7,29.88,West,275,1.0,1.0,73,0.00,,,0.00,Wunderground v.1.15,2013-05-21 14:20:00,
2013-05-21 10:25:00,75.1,65.5,29.88,WSW,239,1.0,5.0,72,0.00,,,0.00,Wunderground v.1.15,2013-05-21 14:25:00,
2013-05-21 10:30:00,75.8,64.9,29.88,NW,312,1.0,22.0,69,0.00,,,0.00,Wunderground v.1.15,2013-05-21 14:30:00,
2013-05-21 10:35:00,76.1,65.2,29.88,WSW,258,1.0,22.0,69,0.00,,,0.00,Wunderground v.1.15,2013-05-21 14:35:00,
2013-05-21 10:40:00,76.3,64.5,29.88,NW,322,1.0,22.0,67,0.00,,,0.00,Wunderground v.1.15,2013-05-21 14:40:00,
2013-05-21 10:45:00,76.8,64.6,29.86,NW,322,1.0,22.0,66,0.00,,,0.00,Wunderground v.1.15,2013-05-21 14:45:00,
2013-05-21 10:50:00,77.2,65.0,29.86,NW,308,1.0,22.0,66,0.00,,,0.00,Wunderground v.1.15,2013-05-21 14:50:00,
2013-05-21 10:55:00,76.7,65.3,29.86,WNW,284,3.0,22.0,68,0.00,,,0.00,Wunderground v.1.15,2013-05-21 14:55:00,
2013-05-21 11:05:00,76.8,65.0,29.85,North,11,1.0,1.0,67,0.00,,,0.00,Wunderground v.1.15,2013-05-21 15:05:00,
2013-05-21 11:10:00,77.6,64.9,29.85,North,356,0.0,0.0,65,0.00,,,0.00,Wunderground v.1.15,2013-05-21 15:10:00,
2013-05-21 11:15:00,78.1,64.9,29.83,West,263,1.0,1.0,64,0.00,,,0.00,Wunderground v.1.15,2013-05-21 15:15:00,
2013-05-21 11:20:00,78.6,64.0,29.83,West,260,1.0,1.0,61,0.00,,,0.00,Wunderground v.1.15,2013-05-21 15:20:00,
2013-05-21 11:25:00,79.0,64.9,29.83,West,261,1.0,1.0,62,0.00,,,0.00,Wunderground v.1.15,2013-05-21 15:25:00,
2013-05-21 11:30:00,79.2,64.6,29.83,West,281,1.0,1.0,61,0.00,,,0.00,Wunderground v.1.15,2013-05-21 15:30:00,
2013-05-21 11:35:00,79.2,62.7,29.83,North,357,2.0,2.0,57,0.00,,,0.00,Wunderground v.1.15,2013-05-21 15:35:00,
2013-05-21 11:40:00,79.0,62.5,29.83,ESE,123,1.0,1.0,57,0.00,,,0.00,Wunderground v.1.15,2013-05-21 15:40:00,
2013-05-21 11:45:00,78.3,59.8,29.83,WNW,302,2.0,3.0,53,0.00,,,0.00,Wunderground v.1.15,2013-05-21 15:45:00,
2013-05-21 11:50:00,78.3,60.8,29.83,NNW,337,2.0,2.0,55,0.00,,,0.00,Wunderground v.1.15,2013-05-21 15:50:00,
2013-05-21 11:55:00,78.3,60.8,29.83,NW,305,2.0,2.0,55,0.00,,,0.00,Wunderground v.1.15,2013-05-21 15:55:00,
2013-05-21 12:00:00,78.6,61.6,29.84,NW,305,1.0,1.0,56,0.00,,,0.00,Wunderground v.1.15,2013-05-21 16:00:00,
2013-05-21 12:05:00,78.6,61.1,29.84,WNW,285,0.0,2.0,55,0.00,,,0.00,Wunderground v.1.15,2013-05-21 16:05:00,
2013-05-21 12:10:00,78.8,61.8,29.84,NNW,336,1.0,1.0,56,0.00,,,0.00,Wunderground v.1.15,2013-05-21 16:10:00,
2013-05-21 12:20:00,80.3,61.6,29.84,ESE,102,1.0,1.0,53,0.00,,,0.00,Wunderground v.1.15,2013-05-21 16:20:00,
2013-05-21 12:25:00,80.9,60.5,29.84,ESE,102,1.0,11.0,50,0.00,,,0.00,Wunderground v.1.15,2013-05-21 16:25:00,
2013-05-21 12:30:00,81.8,61.3,29.83,ESE,102,0.0,11.0,50,0.00,,,0.00,Wunderground v.1.15,2013-05-21 16:30:00,
2013-05-21 12:35:00,82.0,61.5,29.83,WNW,299,0.0,11.0,50,0.00,,,0.00,Wunderground v.1.15,2013-05-21 16:35:00,
2013-05-21 12:40:00,82.0,62.1,29.83,West,278,0.0,11.0,51,0.00,,,0.00,Wunderground v.1.15,2013-05-21 16:40:00,
2013-05-21 12:45:00,81.8,61.3,29.83,WNW,284,1.0,11.0,50,0.00,,,0.00,Wunderground v.1.15,2013-05-21 16:45:00,
2013-05-21 12:50:00,81.2,61.4,29.83,West,275,1.0,11.0,51,0.00,,,0.00,Wunderground v.1.15,2013-05-21 16:50:00,
2013-05-21 12:55:00,81.4,61.0,29.83,WNW,298,2.0,11.0,50,0.00,,,0.00,Wunderground v.1.15,2013-05-21 16:55:00,
2013-05-21 13:00:00,81.4,60.4,29.82,NW,313,4.0,4.0,49,0.00,,,0.00,Wunderground v.1.15,2013-05-21 17:00:00,
2013-05-21 13:05:00,81.6,62.3,29.82,North,0,3.0,11.0,52,0.00,,,0.00,Wunderground v.1.15,2013-05-21 17:05:00,
2013-05-21 13:10:00,81.6,61.7,29.82,North,8,2.0,2.0,51,0.00,,,0.00,Wunderground v.1.15,2013-05-21 17:10:00,
2013-05-21 13:15:00,81.6,61.2,29.83,NNW,343,2.0,11.0,50,0.00,,,0.00,Wunderground v.1.15,2013-05-21 17:15:00,
2013-05-21 13:20:00,82.4,61.3,29.83,West,271,2.0,11.0,49,0.00,,,0.00,Wunderground v.1.15,2013-05-21 17:20:00,
2013-05-21 13:25:00,83.2,62.1,29.83,North,0,2.0,11.0,49,0.00,,,0.00,Wunderground v.1.15,2013-05-21 17:25:00,
2013-05-21 13:30:00,83.2,62.1,29.82,WNW,292,1.0,1.0,49,0.00,,,0.00,Wunderground v.1.15,2013-05-21 17:30:00,
2013-05-21 13:35:00,83.6,61.8,29.82,WNW,292,2.0,2.0,48,0.00,,,0.00,Wunderground v.1.15,2013-05-21 17:35:00,
2013-05-21 13:40:00,83.2,62.1,29.82,NW,306,2.0,2.0,49,0.00,,,0.00,Wunderground v.1.15,2013-05-21 17:40:00,
2013-05-21 13:45:00,83.4,62.2,29.82,West,267,1.0,11.0,49,0.00,,,0.00,Wunderground v.1.15,2013-05-21 17:45:00,
2013-05-21 13:50:00,83.4,61.1,29.82,WNW,296,1.0,1.0,47,0.00,,,0.00,Wunderground v.1.15,2013-05-21 17:50:00,
2013-05-21 13:55:00,83.4,62.8,29.82,WNW,296,1.0,11.0,50,0.00,,,0.00,Wunderground v.1.15,2013-05-21 17:55:00,
2013-05-21 14:00:00,84.1,61.1,29.81,NW,305,1.0,11.0,46,0.00,,,0.00,Wunderground v.1.15,2013-05-21 18:00:00,
2013-05-21 14:05:00,84.3,60.0,29.81,NW,304,1.0,11.0,44,0.00,,,0.00,Wunderground v.1.15,2013-05-21 18:05:00,
2013-05-21 14:10:00,84.3,60.6,29.81,NW,315,1.0,11.0,45,0.00,,,0.00,Wunderground v.1.15,2013-05-21 18:10:00,
2013-05-21 14:15:00,84.3,61.3,29.81,NNE,17,1.0,11.0,46,0.00,,,0.00,Wunderground v.1.15,2013-05-21 18:15:00,
2013-05-21 14:20:00,84.3,61.3,29.81,WNW,302,1.0,1.0,46,0.00,,,0.00,Wunderground v.1.15,2013-05-21 18:20:00,
2013-05-21 14:25:00,84.3,61.3,29.81,NW,306,1.0,11.0,46,0.00,,,0.00,Wunderground v.1.15,2013-05-21 18:25:00,
2013-05-21 14:30:00,84.5,61.4,29.81,NNW,340,1.0,1.0,46,0.00,,,0.00,Wunderground v.1.15,2013-05-21 18:30:00,
2013-05-21 14:35:00,84.3,59.4,29.81,West,274,1.0,11.0,43,0.00,,,0.00,Wunderground v.1.15,2013-05-21 18:35:00,
2013-05-21 14:40:00,84.1,59.8,29.81,WNW,295,1.0,11.0,44,0.00,,,0.00,Wunderground v.1.15,2013-05-21 18:40:00,
2013-05-21 14:45:00,84.5,61.4,29.81,North,357,1.0,11.0,46,0.00,,,0.00,Wunderground v.1.15,2013-05-21 18:45:00,
2013-05-21 14:50:00,85.3,61.6,29.81,ESE,123,1.0,11.0,45,0.00,,,0.00,Wunderground v.1.15,2013-05-21 18:50:00,
2013-05-21 14:55:00,84.7,59.7,29.81,WNW,284,2.0,11.0,43,0.00,,,0.00,Wunderground v.1.15,2013-05-21 18:55:00,
2013-05-21 15:00:00,83.8,60.8,29.80,WNW,296,3.0,3.0,46,0.00,,,0.00,Wunderground v.1.15,2013-05-21 19:00:00,
2013-05-21 15:05:00,83.8,62.0,29.80,WNW,291,2.0,11.0,48,0.00,,,0.00,Wunderground v.1.15,2013-05-21 19:05:00,
2013-05-21 15:10:00,84.1,62.3,29.80,WNW,296,1.0,11.0,48,0.00,,,0.00,Wunderground v.1.15,2013-05-21 19:10:00,
2013-05-21 15:20:00,84.3,60.6,29.80,WNW,295,0.0,11.0,45,0.00,,,0.00,Wunderground v.1.15,2013-05-21 19:20:00,
2013-05-21 15:25:00,85.1,60.7,29.80,WNW,295,0.0,11.0,44,0.00,,,0.00,Wunderground v.1.15,2013-05-21 19:25:00,
2013-05-21 15:30:00,84.9,59.9,29.78,NW,319,1.0,1.0,43,0.00,,,0.00,Wunderground v.1.15,2013-05-21 19:30:00,
2013-05-21 15:35:00,84.5,60.2,29.78,NW,319,1.0,11.0,44,0.00,,,0.00,Wunderground v.1.15,2013-05-21 19:35:00,
2013-05-21 15:40:00,84.0,60.4,29.78,NW,319,0.0,11.0,45,0.00,,,0.00,Wunderground v.1.15,2013-05-21 19:40:00,
2013-05-21 15:45:00,84.3,60.0,29.78,NW,316,1.0,11.0,44,0.00,,,0.00,Wunderground v.1.15,2013-05-21 19:45:00,
2013-05-21 15:50:00,84.1,59.8,29.78,NW,315,1.0,1.0,44,0.00,,,0.00,Wunderground v.1.15,2013-05-21 19:50:00,
2013-05-21 15:55:00,83.8,60.2,29.78,NW,315,1.0,11.0,45,0.00,,,0.00,Wunderground v.1.15,2013-05-21 19:55:00,
2013-05-21 16:00:00,83.8,60.2,29.77,NW,315,1.0,1.0,45,0.00,,,0.00,Wunderground v.1.15,2013-05-21 20:00:00,
2013-05-21 16:05:00,83.6,60.6,29.77,NW,315,1.0,2.0,46,0.00,,,0.00,Wunderground v.1.15,2013-05-21 20:05:00,
2013-05-21 16:10:00,83.0,61.3,29.77,NW,315,0.0,11.0,48,0.00,,,0.00,Wunderground v.1.15,2013-05-21 20:10:00,
2013-05-21 16:15:00,83.4,61.1,29.76,NW,315,0.0,11.0,47,0.00,,,0.00,Wunderground v.1.15,2013-05-21 20:15:00,
2013-05-21 16:20:00,84.5,61.4,29.76,NW,315,0.0,11.0,46,0.00,,,0.00,Wunderground v.1.15,2013-05-21 20:20:00,
2013-05-21 16:25:00,85.5,60.4,29.76,NW,315,0.0,11.0,43,0.00,,,0.00,Wunderground v.1.15,2013-05-21 20:25:00,
2013-05-21 16:30:00,85.9,60.1,29.76,NW,315,0.0,11.0,42,0.00,,,0.00,Wunderground v.1.15,2013-05-21 20:30:00,
2013-05-21 16:35:00,86.5,61.3,29.76,NW,315,0.0,11.0,43,0.00,,,0.00,Wunderground v.1.15,2013-05-21 20:35:00,
2013-05-21 16:40:00,86.3,61.2,29.76,NW,315,1.0,11.0,43,0.00,,,0.00,Wunderground v.1.15,2013-05-21 20:40:00,
2013-05-21 16:45:00,85.9,60.1,29.76,NW,315,1.0,11.0,42,0.00,,,0.00,Wunderground v.1.15,2013-05-21 20:45:00,
2013-05-21 16:50:00,84.9,60.6,29.76,NW,315,0.0,11.0,44,0.00,,,0.00,Wunderground v.1.15,2013-05-21 20:50:00,
2013-05-21 16:55:00,85.3,60.9,29.76,NW,315,0.0,11.0,44,0.00,,,0.00,Wunderground v.1.15,2013-05-21 20:55:00,
2013-05-21 17:00:00,84.9,61.2,29.76,NW,315,0.0,11.0,45,0.00,,,0.00,Wunderground v.1.15,2013-05-21 21:00:00,
2013-05-21 17:05:00,85.1,62.0,29.76,NW,315,0.0,11.0,46,0.00,,,0.00,Wunderground v.1.15,2013-05-21 21:05:00,
2013-05-21 17:10:00,85.9,61.5,29.76,NW,315,0.0,11.0,44,0.00,,,0.00,Wunderground v.1.15,2013-05-21 21:10:00,
2013-05-21 17:15:00,86.5,61.3,29.75,SW,223,0.0,11.0,43,0.00,,,0.00,Wunderground v.1.15,2013-05-21 21:15:00,
2013-05-21 17:20:00,86.1,61.0,29.75,NW,316,1.0,11.0,43,0.00,,,0.00,Wunderground v.1.15,2013-05-21 21:20:00,
2013-05-21 17:25:00,85.9,61.5,29.75,NW,316,1.0,11.0,44,0.00,,,0.00,Wunderground v.1.15,2013-05-21 21:25:00,
2013-05-21 17:30:00,85.7,60.6,29.74,NW,316,1.0,11.0,43,0.00,,,0.00,Wunderground v.1.15,2013-05-21 21:30:00,
2013-05-21 17:35:00,85.5,61.1,29.74,NW,316,1.0,11.0,44,0.00,,,0.00,Wunderground v.1.15,2013-05-21 21:35:00,
2013-05-21 17:40:00,85.1,60.7,29.74,NW,316,1.0,11.0,44,0.00,,,0.00,Wunderground v.1.15,2013-05-21 21:40:00,
2013-05-21 17:45:00,85.3,60.9,29.75,NW,316,0.0,11.0,44,0.00,,,0.00,Wunderground v.1.15,2013-05-21 21:45:00,
2013-05-21 17:50:00,85.9,60.8,29.75,NW,316,0.0,11.0,43,0.00,,,0.00,Wunderground v.1.15,2013-05-21 21:50:00,
2013-05-21 17:55:00,86.3,61.2,29.75,NW,316,0.0,11.0,43,0.00,,,0.00,Wunderground v.1.15,2013-05-21 21:55:00,
2013-05-21 18:00:00,86.3,61.2,29.74,NW,316,0.0,11.0,43,0.00,,,0.00,Wunderground v.1.15,2013-05-21 22:00:00,
2013-05-21 18:10:00,85.9,62.7,29.74,NW,316,0.0,11.0,46,0.00,,,0.00,Wunderground v.1.15,2013-05-21 22:10:00,
2013-05-21 18:15:00,85.7,62.5,29.74,NW,316,0.0,11.0,46,0.00,,,0.00,Wunderground v.1.15,2013-05-21 22:15:00,
2013-05-21 18:25:00,84.5,64.4,29.74,ESE,114,0.0,11.0,51,0.00,,,0.00,Wunderground v.1.15,2013-05-21 22:25:00,
2013-05-21 18:30:00,84.0,64.5,29.74,ESE,114,0.0,11.0,52,0.00,,,0.00,Wunderground v.1.15,2013-05-21 22:30:00,
2013-05-21 18:35:00,83.8,64.8,29.74,ESE,114,0.0,11.0,53,0.00,,,0.00,Wunderground v.1.15,2013-05-21 22:35:00,
2013-05-21 18:40:00,82.8,64.5,29.74,ESE,114,0.0,11.0,54,0.00,,,0.00,Wunderground v.1.15,2013-05-21 22:40:00,
2013-05-21 18:45:00,81.6,64.4,29.75,ESE,114,0.0,11.0,56,0.00,,,0.00,Wunderground v.1.15,2013-05-21 22:45:00,
2013-05-21 18:50:00,80.5,64.9,29.75,ESE,114,0.0,11.0,59,0.00,,,0.00,Wunderground v.1.15,2013-05-21 22:50:00,
2013-05-21 18:55:00,80.1,65.0,29.75,ESE,114,0.0,11.0,60,0.00,,,0.00,Wunderground v.1.15,2013-05-21 22:55:00,
2013-05-21 19:00:00,79.8,64.7,29.75,ESE,114,0.0,11.0,60,0.00,,,0.00,Wunderground v.1.15,2013-05-21 23:00:00,
2013-05-21 19:05:00,79.2,64.6,29.75,ESE,114,0.0,11.0,61,0.00,,,0.00,Wunderground v.1.15,2013-05-21 23:05:00,
2013-05-21 19:10:00,78.5,64.9,29.75,ESE,114,0.0,11.0,63,0.00,,,0.00,Wunderground v.1.15,2013-05-21 23:10:00,
2013-05-21 19:15:00,77.9,64.3,29.74,ESE,114,0.0,11.0,63,0.00,,,0.00,Wunderground v.1.15,2013-05-21 23:15:00,
2013-05-21 19:20:00,77.4,64.3,29.74,ESE,114,0.0,11.0,64,0.00,,,0.00,Wunderground v.1.15,2013-05-21 23:20:00,
2013-05-21 19:25:00,76.7,64.0,29.74,ESE,114,0.0,11.0,65,0.00,,,0.00,Wunderground v.1.15,2013-05-21 23:25:00,
2013-05-21 19:30:00,76.1,63.9,29.75,SW,227,0.0,11.0,66,0.00,,,0.00,Wunderground v.1.15,2013-05-21 23:30:00,
2013-05-21 19:35:00,76.0,64.2,29.75,SW,229,0.0,11.0,67,0.00,,,0.00,Wunderground v.1.15,2013-05-21 23:35:00,
2013-05-21 19:40:00,75.6,64.3,29.75,WNW,289,0.0,11.0,68,0.00,,,0.00,Wunderground v.1.15,2013-05-21 23:40:00,
2013-05-21 19:45:00,75.6,64.3,29.77,WNW,292,0.0,11.0,68,0.00,,,0.00,Wunderground v.1.15,2013-05-21 23:45:00,
2013-05-21 19:50:00,75.8,64.5,29.77,East,95,1.0,11.0,68,0.00,,,0.00,Wunderground v.1.15,2013-05-21 23:50:00,
2013-05-21 19:55:00,75.8,64.1,29.77,SW,217,2.0,11.0,67,0.00,,,0.00,Wunderground v.1.15,2013-05-21 23:55:00,
2013-05-21 20:00:00,75.3,63.6,29.77,East,97,3.0,11.0,67,0.00,,,0.00,Wunderground v.1.15,2013-05-22 00:00:00,
2013-05-21 20:05:00,74.6,63.8,29.77,ESE,116,3.0,11.0,69,0.00,,,0.00,Wunderground v.1.15,2013-05-22 00:05:00,
2013-05-21 20:10:00,73.9,63.1,29.77,SW,229,3.0,3.0,69,0.00,,,0.00,Wunderground v.1.15,2013-05-22 00:10:00,
2013-05-21 20:15:00,73.3,62.9,29.78,NW,306,2.0,5.0,70,0.00,,,0.00,Wunderground v.1.15,2013-05-22 00:15:00,
2013-05-21 20:20:00,72.8,62.4,29.78,NNW,332,2.0,2.0,70,0.00,,,0.00,Wunderground v.1.15,2013-05-22 00:20:00,
2013-05-21 20:25:00,72.3,62.0,29.78,WSW,237,2.0,11.0,70,0.00,,,0.00,Wunderground v.1.15,2013-05-22 00:25:00,
2013-05-21 20:30:00,72.0,61.7,29.79,ESE,110,1.0,11.0,70,0.00,,,0.00,Wunderground v.1.15,2013-05-22 00:30:00,
2013-05-21 20:35:00,71.3,61.0,29.79,SSW,196,2.0,11.0,70,0.00,,,0.00,Wunderground v.1.15,2013-05-22 00:35:00,
2013-05-21 20:40:00,70.6,60.3,29.79,SE,137,2.0,2.0,70,0.00,,,0.00,Wunderground v.1.15,2013-05-22 00:40:00,
2013-05-21 20:45:00,70.1,59.9,29.78,SW,229,2.0,11.0,70,0.00,,,0.00,Wunderground v.1.15,2013-05-22 00:45:00,
2013-05-21 20:50:00,69.8,60.0,29.78,SW,223,2.0,11.0,71,0.00,,,0.00,Wunderground v.1.15,2013-05-22 00:50:00,
2013-05-21 20:55:00,69.6,59.8,29.78,West,274,1.0,11.0,71,0.00,,,0.00,Wunderground v.1.15,2013-05-22 00:55:00,
2013-05-21 21:00:00,68.9,59.1,29.79,SW,219,2.0,2.0,71,0.00,,,0.00,Wunderground v.1.15,2013-05-22 01:00:00,
2013-05-21 21:05:00,68.1,58.3,29.79,ESE,106,4.0,4.0,71,0.00,,,0.00,Wunderground v.1.15,2013-05-22 01:05:00,
2013-05-21 21:10:00,66.9,57.6,29.79,ENE,65,4.0,11.0,72,0.00,,,0.00,Wunderground v.1.15,2013-05-22 01:10:00,
2013-05-21 21:20:00,66.1,57.6,29.82,ENE,78,3.0,3.0,74,0.00,,,0.00,Wunderground v.1.15,2013-05-22 01:20:00,
2013-05-21 21:30:00,65.6,57.5,29.82,SE,133,3.0,11.0,75,0.00,,,0.00,Wunderground v.1.15,2013-05-22 01:30:00,
2013-05-21 21:35:00,64.7,57.7,29.82,ESE,123,2.0,11.0,78,0.45,,,0.04,Wunderground v.1.15,2013-05-22 01:35:00,
2013-05-21 21:40:00,63.7,58.4,29.82,ESE,120,2.0,2.0,83,0.25,,,0.07,Wunderground v.1.15,2013-05-22 01:40:00,
2013-05-21 21:45:00,63.2,58.3,29.83,ESE,120,1.0,11.0,84,0.08,,,0.08,Wunderground v.1.15,2013-05-22 01:45:00,
2013-05-21 21:50:00,63.1,58.8,29.83,ESE,120,0.0,11.0,86,0.08,,,0.08,Wunderground v.1.15,2013-05-22 01:50:00,
2013-05-21 21:55:00,62.7,58.8,29.83,ESE,120,0.0,11.0,87,0.06,,,0.08,Wunderground v.1.15,2013-05-22 01:55:00,
2013-05-21 22:00:00,62.0,58.1,29.86,ESE,120,0.0,11.0,87,0.05,,,0.09,Wunderground v.1.15,2013-05-22 02:00:00,
2013-05-21 22:05:00,61.3,57.4,29.86,SE,141,0.0,11.0,87,0.09,,,0.10,Wunderground v.1.15,2013-05-22 02:05:00,
2013-05-21 22:10:00,60.5,56.6,29.86,NE,51,1.0,11.0,87,0.29,,,0.12,Wunderground v.1.15,2013-05-22 02:10:00,
2013-05-21 22:15:00,59.8,55.9,29.89,NNW,332,1.0,11.0,87,0.16,,,0.13,Wunderground v.1.15,2013-05-22 02:15:00,
2013-05-21 22:20:00,59.5,55.9,29.89,ENE,72,1.0,1.0,88,2.91,,,0.22,Wunderground v.1.15,2013-05-22 02:20:00,
2013-05-21 22:25:00,58.7,55.2,29.89,North,0,2.0,2.0,88,0.29,,,0.28,Wunderground v.1.15,2013-05-22 02:25:00,
2013-05-21 22:30:00,58.3,55.1,29.94,East,82,2.0,2.0,89,0.15,,,0.29,Wunderground v.1.15,2013-05-22 02:30:00,
2013-05-21 22:35:00,57.8,54.6,29.94,ENE,78,1.0,11.0,89,0.13,,,0.30,Wunderground v.1.15,2013-05-22 02:35:00,
2013-05-21 22:40:00,57.5,54.3,29.94,WSW,256,1.0,1.0,89,0.11,,,0.31,Wunderground v.1.15,2013-05-22 02:40:00,
2013-05-21 22:45:00,57.2,54.0,29.92,North,357,0.0,11.0,89,0.08,,,0.32,Wunderground v.1.15,2013-05-22 02:45:00,
2013-05-21 22:50:00,57.0,54.1,29.92,NW,311,1.0,1.0,90,0.11,,,0.33,Wunderground v.1.15,2013-05-22 02:50:00,
2013-05-21 22:55:00,57.0,54.1,29.92,NW,311,1.0,11.0,90,0.10,,,0.33,Wunderground v.1.15,2013-05-22 02:55:00,
2013-05-21 23:00:00,56.7,53.8,29.90,NW,311,0.0,11.0,90,0.05,,,0.33,Wunderground v.1.15,2013-05-22 03:00:00,
2013-05-21 23:05:00,56.7,53.8,29.90,NW,311,0.0,11.0,90,0.04,,,0.33,Wunderground v.1.15,2013-05-22 03:05:00,
2013-05-21 23:10:00,56.7,54.1,29.90,NW,311,0.0,11.0,91,0.00,,,0.33,Wunderground v.1.15,2013-05-22 03:10:00,
2013-05-21 23:15:00,56.6,54.0,29.88,NW,311,0.0,11.0,91,0.00,,,0.33,Wunderground v.1.15,2013-05-22 03:15:00,
2013-05-21 23:20:00,56.6,54.0,29.88,NW,311,0.0,11.0,91,0.00,,,0.33,Wunderground v.1.15,2013-05-22 03:20:00,
2013-05-21 23:25:00,56.6,54.3,29.88,NW,311,0.0,11.0,92,0.00,,,0.33,Wunderground v.1.15,2013-05-22 03:25:00,
2013-05-21 23:30:00,56.7,54.1,29.86,NW,311,0.0,11.0,91,0.00,,,0.33,Wunderground v.1.15,2013-05-22 03:30:00,
2013-05-21 23:35:00,56.6,54.0,29.86,NW,311,0.0,11.0,91,0.00,,,0.33,Wunderground v.1.15,2013-05-22 03:35:00,
2013-05-21 23:40:00,56.6,54.0,29.86,NW,311,0.0,11.0,91,0.00,,,0.33,Wunderground v.1.15,2013-05-22 03:40:00,
2013-05-21 23:45:00,56.5,53.9,29.85,NW,311,0.0,11.0,91,0.00,,,0.33,Wunderground v.1.15,2013-05-22 03:45:00,
2013-05-21 23:50:00,56.3,53.7,29.85,NW,311,1.0,1.0,91,0.00,,,0.33,Wunderground v.1.15,2013-05-22 03:50:00,
2013-05-21 23:55:00,56.2,53.9,29.85,NW,311,1.0,11.0,92,0.00,,,0.33,Wunderground v.1.15,2013-05-22 03:55:00,